Terminal Aerodrome Forecast
Issued by NWS

Home | Current Version | Previous Version | Text Only | Print | Product List | Glossary On
Versions: 1 2 3 4 5 6 7 8 9 10 11 12 13 14 15 16 17 18 19 20 21 22 23 24 25 26 27 28 29 30 31 32 33 34 35
000
FTAK31 PAFA 051130
TAFABT
TAF
PABT 051130Z 0512/0612 35003KT 6SM -SN BR BKN015 BKN025 OVC035
     FM051500 VRB03KT 4SM -SN BR BKN015 OVC025
     FM051800 VRB03KT 1 1/2SM -SN BR OVC015
     FM060600 VRB04KT 5SM -SN BR BKN015 OVC025=

USA.gov is the U.S. government's official web portal to all federal, state and local government web resources and services.